Time;durP1;ratioP1;P1;durP2;ratioP2;P2;SDS_P1;SDS_P2;PMS_P1;PMS_P2;Temp;Humidity;BMP_temperature;BMP_pressure;BME280_temperature;BME280_humidity;BME280_pressure;Samples;Min_cycle;Max_cycle;Signal;HPM_P1;HPM_P2
2022/09/21 00:02:24;;;;;;;;;;;11.60;68.00;;;;;;5124486;27;20350;-69
2022/09/21 00:04:50;;;;;;;;;;;11.60;68.00;;;;;;5142025;27;19903;-69
2022/09/21 00:07:15;;;;;;;;;;;11.60;68.10;;;;;;5143885;27;20353;-69
2022/09/21 00:09:41;;;;;;;;;;;11.60;67.90;;;;;;5142251;27;19907;-69
2022/09/21 00:12:08;;;;;;;;;;;11.60;67.70;;;;;;5142822;27;19914;-70
2022/09/21 00:14:33;;;;;;;;;;;11.50;67.50;;;;;;5143856;27;19903;-69
2022/09/21 00:16:59;;;;;;;;;;;11.50;67.50;;;;;;5141966;27;19907;-69
2022/09/21 00:19:25;;;;;;;;;;;11.50;67.70;;;;;;5142852;27;19903;-69
2022/09/21 00:21:53;;;;;;;;;;;11.50;67.90;;;;;;5143646;27;19903;-69
2022/09/21 00:24:18;;;;;;;;;;;11.40;67.90;;;;;;5141883;27;19903;-70
2022/09/21 00:26:44;;;;;;;;;;;11.40;67.90;;;;;;5142864;27;19952;-70
2022/09/21 00:29:10;;;;;;;;;;;11.40;68.60;;;;;;5124954;27;20339;-69
2022/09/21 00:31:35;;;;;;;;;;;11.40;67.80;;;;;;5141367;27;19923;-69
2022/09/21 00:34:02;;;;;;;;;;;11.40;67.70;;;;;;5123433;27;19918;-69
2022/09/21 00:36:28;;;;;;;;;;;11.30;67.50;;;;;;5143091;27;19919;-69
2022/09/21 00:38:57;;;;;;;;;;;11.30;67.50;;;;;;5141508;27;20011;-69
2022/09/21 00:41:24;;;;;;;;;;;11.20;67.50;;;;;;5142875;27;19903;-69
2022/09/21 00:44:08;;;;;;;;;;;11.20;67.70;;;;;;5143246;27;19934;-69
2022/09/21 00:46:35;;;;;;;;;;;11.20;67.90;;;;;;5143598;27;19910;-69
2022/09/21 00:49:00;;;;;;;;;;;11.20;67.90;;;;;;5141913;27;19909;-69
2022/09/21 00:51:26;;;;;;;;;;;11.10;67.70;;;;;;5142395;27;19982;-69
2022/09/21 00:53:53;;;;;;;;;;;11.10;67.60;;;;;;5143443;27;19903;-69
2022/09/21 00:56:22;;;;;;;;;;;11.10;67.70;;;;;;5141526;27;19918;-69
2022/09/21 00:58:49;;;;;;;;;;;11.10;67.80;;;;;;5141922;27;20388;-69
2022/09/21 01:01:17;;;;;;;;;;;11.00;67.70;;;;;;5143470;27;20361;-69
2022/09/21 01:03:44;;;;;;;;;;;11.00;67.80;;;;;;5141914;27;19946;-69
2022/09/21 01:06:11;;;;;;;;;;;11.00;68.10;;;;;;5143412;27;19899;-70
2022/09/21 01:08:38;;;;;;;;;;;11.00;68.30;;;;;;5147319;27;19993;-69
2022/09/21 01:11:22;;;;;;;;;;;11.00;68.40;;;;;;5146117;27;20338;-69
2022/09/21 01:13:47;;;;;;;;;;;11.00;68.50;;;;;;5146629;27;19907;-69
2022/09/21 01:16:21;;;;;;;;;;;11.00;68.60;;;;;;5147390;27;19918;-70
2022/09/21 01:18:55;;;;;;;;;;;11.00;68.70;;;;;;5145652;27;19907;-69
2022/09/21 01:21:22;;;;;;;;;;;10.90;68.80;;;;;;5144923;27;19899;-69
2022/09/21 01:24:06;;;;;;;;;;;10.90;68.80;;;;;;5146619;27;19946;-69
2022/09/21 01:26:34;;;;;;;;;;;10.90;68.80;;;;;;5145899;27;19907;-69
2022/09/21 01:29:00;;;;;;;;;;;10.90;68.90;;;;;;5144665;27;19911;-69
2022/09/21 01:31:30;;;;;;;;;;;10.90;68.80;;;;;;5146458;27;19899;-69
2022/09/21 01:33:58;;;;;;;;;;;10.90;68.80;;;;;;5144073;27;19994;-69
2022/09/21 01:36:26;;;;;;;;;;;10.90;68.80;;;;;;5144667;27;19907;-69
2022/09/21 01:38:55;;;;;;;;;;;10.80;68.80;;;;;;5145570;27;19910;-69
2022/09/21 01:41:22;;;;;;;;;;;10.80;68.90;;;;;;5146539;27;20269;-69
2022/09/21 01:43:54;;;;;;;;;;;10.70;69.00;;;;;;5145048;27;19908;-69
2022/09/21 01:46:21;;;;;;;;;;;10.70;69.00;;;;;;5144373;27;19947;-69
2022/09/21 01:48:49;;;;;;;;;;;10.70;69.00;;;;;;5127711;27;19903;-69
2022/09/21 01:51:16;;;;;;;;;;;10.70;69.00;;;;;;5145871;27;19903;-69
2022/09/21 01:53:48;;;;;;;;;;;10.70;69.00;;;;;;5144263;27;19954;-69
2022/09/21 01:56:18;;;;;;;;;;;10.70;69.00;;;;;;5126466;27;19907;-69
2022/09/21 01:58:57;;;;;;;;;;;10.70;69.00;;;;;;5144192;27;19985;-69
2022/09/21 02:01:26;;;;;;;;;;;10.70;69.00;;;;;;5144051;27;19899;-69
2022/09/21 02:04:03;;;;;;;;;;;10.70;69.10;;;;;;5144323;27;19907;-69
2022/09/21 02:06:29;;;;;;;;;;;10.70;69.10;;;;;;5144663;27;19911;-69
2022/09/21 02:08:55;;;;;;;;;;;10.70;69.20;;;;;;5126174;27;19903;-69
2022/09/21 02:11:21;;;;;;;;;;;10.70;69.20;;;;;;5127503;27;20346;-69
2022/09/21 02:13:49;;;;;;;;;;;10.80;69.20;;;;;;5144291;27;19904;-69
2022/09/21 02:16:24;;;;;;;;;;;10.80;69.10;;;;;;5144456;27;19907;-69
2022/09/21 02:18:58;;;;;;;;;;;10.80;69.10;;;;;;5144474;27;19913;-70
2022/09/21 02:21:29;;;;;;;;;;;10.80;69.10;;;;;;5125320;27;19906;-69
2022/09/21 02:24:01;;;;;;;;;;;10.80;69.10;;;;;;5144390;27;19946;-69
2022/09/21 02:26:41;;;;;;;;;;;10.90;69.10;;;;;;5144058;27;19926;-69
2022/09/21 02:29:17;;;;;;;;;;;10.90;69.10;;;;;;5144038;27;19942;-69
2022/09/21 02:31:52;;;;;;;;;;;10.90;69.10;;;;;;5143249;27;19999;-69
2022/09/21 02:34:43;;;;;;;;;;;10.90;69.10;;;;;;5143675;27;20410;-69
2022/09/21 02:37:30;;;;;;;;;;;10.90;69.10;;;;;;5130226;27;20341;-69
2022/09/21 02:39:55;;;;;;;;;;;10.90;69.10;;;;;;5092328;27;19904;-69
2022/09/21 02:42:25;;;;;;;;;;;11.00;69.20;;;;;;5143131;27;19952;-69
2022/09/21 02:45:02;;;;;;;;;;;11.00;69.20;;;;;;5148920;27;19910;-70
2022/09/21 02:47:31;;;;;;;;;;;11.00;69.20;;;;;;5145061;27;20369;-70
2022/09/21 02:50:12;;;;;;;;;;;11.00;69.20;;;;;;5127069;27;19974;-69
2022/09/21 02:52:39;;;;;;;;;;;11.10;69.20;;;;;;5143542;27;20277;-69
2022/09/21 02:55:05;;;;;;;;;;;11.10;69.20;;;;;;5144167;27;19951;-69
2022/09/21 02:57:31;;;;;;;;;;;11.20;69.10;;;;;;5145253;27;21061;-69
2022/09/21 02:59:57;;;;;;;;;;;11.20;69.00;;;;;;5143328;27;19939;-69
2022/09/21 03:02:23;;;;;;;;;;;11.20;68.90;;;;;;5144172;27;20022;-70
2022/09/21 03:04:48;;;;;;;;;;;11.20;69.00;;;;;;5144802;27;20003;-69
2022/09/21 03:07:14;;;;;;;;;;;11.20;69.00;;;;;;5142884;27;19926;-69
2022/09/21 03:09:40;;;;;;;;;;;11.20;69.00;;;;;;5126027;27;19993;-69
2022/09/21 03:12:06;;;;;;;;;;;11.30;69.10;;;;;;5144376;27;19904;-69
2022/09/21 03:14:32;;;;;;;;;;;11.30;69.10;;;;;;5142702;27;19930;-69
2022/09/21 03:16:58;;;;;;;;;;;11.30;69.10;;;;;;5144640;27;19911;-69
2022/09/21 03:19:24;;;;;;;;;;;11.40;69.20;;;;;;5145013;27;20266;-69
2022/09/21 03:21:50;;;;;;;;;;;11.40;69.20;;;;;;5144516;27;20111;-69
2022/09/21 03:24:44;;;;;;;;;;;11.40;69.10;;;;;;5142661;27;19903;-69
2022/09/21 03:27:02;;;;;;;;;;;11.50;69.10;;;;;;5143076;27;19903;-70
2022/09/21 03:29:27;;;;;;;;;;;11.50;69.10;;;;;;5142765;27;19907;-70
2022/09/21 03:31:54;;;;;;;;;;;11.50;69.20;;;;;;5124989;27;20005;-70
2022/09/21 03:34:20;;;;;;;;;;;11.60;69.20;;;;;;5142933;27;19911;-69
2022/09/21 03:36:47;;;;;;;;;;;11.60;69.20;;;;;;5143180;27;19913;-69
2022/09/21 03:39:12;;;;;;;;;;;11.60;69.20;;;;;;5125951;27;19903;-69
2022/09/21 03:41:38;;;;;;;;;;;11.60;69.20;;;;;;5142647;27;19918;-70
2022/09/21 03:44:03;;;;;;;;;;;11.70;69.10;;;;;;5143731;27;19910;-70
2022/09/21 03:46:29;;;;;;;;;;;11.70;69.10;;;;;;5144104;27;19907;-70
2022/09/21 03:48:55;;;;;;;;;;;11.70;69.00;;;;;;5142225;27;19948;-70
2022/09/21 03:51:21;;;;;;;;;;;11.70;68.90;;;;;;5143742;27;19903;-70
2022/09/21 03:53:46;;;;;;;;;;;11.70;68.90;;;;;;5143632;27;20330;-70
2022/09/21 03:56:12;;;;;;;;;;;11.70;68.90;;;;;;5141926;27;19949;-70
2022/09/21 03:58:37;;;;;;;;;;;11.70;68.80;;;;;;5143639;27;19942;-70
2022/09/21 04:01:03;;;;;;;;;;;11.70;68.80;;;;;;5143257;27;19997;-69
2022/09/21 04:03:29;;;;;;;;;;;11.80;68.70;;;;;;5143604;27;19908;-70
2022/09/21 04:05:54;;;;;;;;;;;11.80;68.70;;;;;;5142028;27;19903;-70
2022/09/21 04:08:20;;;;;;;;;;;11.70;68.40;;;;;;5143544;27;19910;-70
2022/09/21 04:10:45;;;;;;;;;;;11.70;68.30;;;;;;5143150;27;19910;-70
2022/09/21 04:13:12;;;;;;;;;;;11.70;68.20;;;;;;5141927;27;19919;-70
2022/09/21 04:15:38;;;;;;;;;;;11.60;68.00;;;;;;5142089;27;19903;-70
2022/09/21 04:18:04;;;;;;;;;;;11.60;68.00;;;;;;5142896;27;19903;-70
2022/09/21 04:20:31;;;;;;;;;;;11.50;68.00;;;;;;5143761;27;20277;-70
2022/09/21 04:22:56;;;;;;;;;;;11.50;68.10;;;;;;5141808;27;19904;-70
2022/09/21 04:25:22;;;;;;;;;;;11.50;68.20;;;;;;5124680;27;19903;-70
2022/09/21 04:27:48;;;;;;;;;;;11.50;68.20;;;;;;5143331;27;19904;-70
2022/09/21 04:30:14;;;;;;;;;;;11.50;68.30;;;;;;5141689;27;19903;-70
2022/09/21 04:32:40;;;;;;;;;;;11.50;68.30;;;;;;5120157;28;19959;-70
2022/09/21 04:35:05;;;;;;;;;;;11.50;68.30;;;;;;5121096;28;19949;-70
2022/09/21 04:37:31;;;;;;;;;;;11.50;68.30;;;;;;5122986;28;19914;-70
2022/09/21 04:39:57;;;;;;;;;;;11.50;68.40;;;;;;5121440;27;19904;-70
2022/09/21 04:42:23;;;;;;;;;;;11.50;68.40;;;;;;5126227;27;20289;-70
2022/09/21 04:44:49;;;;;;;;;;;11.60;68.50;;;;;;5126915;27;19907;-70
2022/09/21 04:47:15;;;;;;;;;;;11.60;68.50;;;;;;5125080;27;19904;-70
2022/09/21 04:49:40;;;;;;;;;;;11.60;68.50;;;;;;5126691;27;19952;-70
2022/09/21 04:52:06;;;;;;;;;;;11.70;68.50;;;;;;5126411;27;19904;-70
2022/09/21 04:54:32;;;;;;;;;;;11.70;68.50;;;;;;5124909;27;19998;-70
2022/09/21 04:56:58;;;;;;;;;;;11.70;68.50;;;;;;5126731;27;20006;-70
2022/09/21 04:59:23;;;;;;;;;;;11.70;68.50;;;;;;5125804;27;19904;-70
2022/09/21 05:01:49;;;;;;;;;;;11.80;68.60;;;;;;5125185;27;20294;-70
2022/09/21 05:04:15;;;;;;;;;;;11.70;68.50;;;;;;5126873;27;19947;-70
2022/09/21 05:06:40;;;;;;;;;;;11.80;68.50;;;;;;5125231;27;20000;-70
2022/09/21 05:11:51;;;;;;;;;;;11.80;68.40;;;;;;5124757;27;19956;-70
2022/09/21 05:14:17;;;;;;;;;;;11.80;68.30;;;;;;5124628;27;19904;-70
2022/09/21 05:16:43;;;;;;;;;;;11.80;68.30;;;;;;5125646;27;20418;-70
2022/09/21 05:19:09;;;;;;;;;;;11.80;68.30;;;;;;5125951;27;19990;-70
2022/09/21 05:21:35;;;;;;;;;;;11.80;68.40;;;;;;5123059;27;19922;-70
2022/09/21 05:24:01;;;;;;;;;;;11.80;68.50;;;;;;5125877;27;20369;-70
2022/09/21 05:26:28;;;;;;;;;;;11.70;68.50;;;;;;5125738;27;19908;-70
2022/09/21 05:28:53;;;;;;;;;;;11.80;68.50;;;;;;5122848;27;19957;-70
2022/09/21 05:31:37;;;;;;;;;;;11.70;68.40;;;;;;5126292;27;19908;-70
2022/09/21 05:34:02;;;;;;;;;;;11.70;68.30;;;;;;5145418;27;19915;-70
2022/09/21 05:36:47;;;;;;;;;;;11.70;68.40;;;;;;5145345;27;19907;-70
2022/09/21 05:39:12;;;;;;;;;;;11.70;68.40;;;;;;5146788;27;19911;-70
2022/09/21 05:41:38;;;;;;;;;;;11.70;68.60;;;;;;5144812;27;20380;-70
2022/09/21 05:44:04;;;;;;;;;;;11.70;68.70;;;;;;5145769;27;19903;-70
2022/09/21 05:46:40;;;;;;;;;;;11.70;68.90;;;;;;5146289;27;19930;-70
2022/09/21 05:49:15;;;;;;;;;;;11.70;69.00;;;;;;5127388;27;20328;-70
2022/09/21 05:51:50;;;;;;;;;;;11.70;69.10;;;;;;5147033;27;20460;-70
2022/09/21 05:54:22;;;;;;;;;;;11.80;69.20;;;;;;5143995;27;20002;-70
2022/09/21 05:56:51;;;;;;;;;;;11.80;69.20;;;;;;5145984;27;20006;-70
2022/09/21 05:59:36;;;;;;;;;;;11.90;69.20;;;;;;5144473;27;19903;-69
2022/09/21 06:02:11;;;;;;;;;;;12.00;69.30;;;;;;5143142;27;20063;-69
2022/09/21 06:04:37;;;;;;;;;;;12.00;69.40;;;;;;5145382;27;19917;-70
2022/09/21 06:07:03;;;;;;;;;;;12.10;69.40;;;;;;5145175;27;19993;-70
2022/09/21 06:09:28;;;;;;;;;;;12.20;69.50;;;;;;5127567;27;19903;-70
2022/09/21 06:11:54;;;;;;;;;;;12.20;69.50;;;;;;5143881;27;19907;-69
2022/09/21 06:14:24;;;;;;;;;;;12.30;69.40;;;;;;5144603;27;19950;-69
2022/09/21 06:16:50;;;;;;;;;;;12.40;69.30;;;;;;5146873;27;20377;-70
2022/09/21 06:19:16;;;;;;;;;;;12.40;68.90;;;;;;5145902;27;20273;-70
2022/09/21 06:21:41;;;;;;;;;;;12.40;68.70;;;;;;5139158;27;19911;-70
2022/09/21 06:24:07;;;;;;;;;;;12.40;68.60;;;;;;5144404;27;19907;-70
2022/09/21 06:26:33;;;;;;;;;;;12.50;68.60;;;;;;5135938;27;19907;-70
2022/09/21 06:28:59;;;;;;;;;;;12.50;68.60;;;;;;5146186;27;19906;-69
2022/09/21 06:31:28;;;;;;;;;;;12.60;68.60;;;;;;5154181;27;19954;-70
2022/09/21 06:33:54;;;;;;;;;;;12.60;68.50;;;;;;5138831;27;19912;-70
2022/09/21 06:36:20;;;;;;;;;;;12.60;68.40;;;;;;5136815;27;19922;-70
2022/09/21 06:38:45;;;;;;;;;;;12.70;68.40;;;;;;5143554;27;19959;-70
2022/09/21 06:41:11;;;;;;;;;;;12.80;68.50;;;;;;5145705;27;19975;-71
2022/09/21 06:43:36;;;;;;;;;;;12.80;68.40;;;;;;5135609;27;19911;-70
2022/09/21 06:46:02;;;;;;;;;;;12.90;68.60;;;;;;5117114;27;19910;-70
2022/09/21 06:48:29;;;;;;;;;;;12.90;68.60;;;;;;5135418;27;20291;-70
2022/09/21 06:51:02;;;;;;;;;;;13.00;68.50;;;;;;5135522;27;19904;-70
2022/09/21 06:53:28;;;;;;;;;;;13.10;68.30;;;;;;5135280;27;19914;-71
2022/09/21 06:55:59;;;;;;;;;;;13.10;67.90;;;;;;5135143;27;19938;-71
2022/09/21 06:58:24;;;;;;;;;;;13.20;67.80;;;;;;5135277;27;19904;-71
2022/09/21 07:00:52;;;;;;;;;;;13.20;67.70;;;;;;5135183;27;20457;-71
2022/09/21 07:03:18;;;;;;;;;;;13.20;67.60;;;;;;5115897;27;19911;-71
2022/09/21 07:05:45;;;;;;;;;;;13.20;67.40;;;;;;5135454;27;20261;-71
2022/09/21 07:08:11;;;;;;;;;;;13.30;67.20;;;;;;5135128;27;19903;-71
2022/09/21 07:10:36;;;;;;;;;;;13.30;67.10;;;;;;5116487;27;20266;-71
2022/09/21 07:13:03;;;;;;;;;;;13.40;67.10;;;;;;5134798;27;19911;-71
2022/09/21 07:15:30;;;;;;;;;;;13.40;67.00;;;;;;5134959;27;19945;-71
2022/09/21 07:17:55;;;;;;;;;;;13.40;66.90;;;;;;5116392;27;20263;-71
2022/09/21 07:20:21;;;;;;;;;;;13.50;67.10;;;;;;5134850;27;20016;-71
2022/09/21 07:22:46;;;;;;;;;;;13.60;67.30;;;;;;5134845;27;19903;-71
2022/09/21 07:25:12;;;;;;;;;;;13.60;67.30;;;;;;5116392;27;20054;-71
2022/09/21 07:27:38;;;;;;;;;;;13.70;67.20;;;;;;5134704;27;19910;-72
2022/09/21 07:30:04;;;;;;;;;;;13.70;67.00;;;;;;5134694;27;19956;-71
2022/09/21 07:32:30;;;;;;;;;;;13.80;66.90;;;;;;5134174;27;19915;-72
2022/09/21 07:34:56;;;;;;;;;;;13.90;66.90;;;;;;5116170;27;20274;-71
2022/09/21 07:37:23;;;;;;;;;;;13.90;66.90;;;;;;5116147;27;19914;-71
2022/09/21 07:39:50;;;;;;;;;;;13.90;66.90;;;;;;5134540;27;19910;-71
2022/09/21 07:42:16;;;;;;;;;;;14.00;66.80;;;;;;5134569;27;19908;-71
2022/09/21 07:44:42;;;;;;;;;;;14.10;66.70;;;;;;5134476;27;19907;-72
2022/09/21 07:47:08;;;;;;;;;;;14.10;66.40;;;;;;5134320;27;20277;-72
2022/09/21 07:49:34;;;;;;;;;;;14.20;66.30;;;;;;5134350;27;20001;-72
2022/09/21 07:51:59;;;;;;;;;;;14.20;66.30;;;;;;5134320;27;19903;-72
2022/09/21 07:54:25;;;;;;;;;;;14.30;66.20;;;;;;5115876;27;19903;-72
2022/09/21 07:59:51;;;;;;;;;;;14.30;65.60;;;;;;5030962;28;19916;-72
2022/09/21 08:02:17;;;;;;;;;;;14.40;65.40;;;;;;5112254;27;19907;-72
2022/09/21 08:04:43;;;;;;;;;;;14.40;65.30;;;;;;5134203;27;20285;-72
2022/09/21 08:07:08;;;;;;;;;;;14.50;65.30;;;;;;5134212;27;19903;-72
2022/09/21 08:09:34;;;;;;;;;;;14.50;65.40;;;;;;5134399;27;19910;-72
2022/09/21 08:12:00;;;;;;;;;;;14.50;65.30;;;;;;5115578;27;20300;-72
2022/09/21 08:14:25;;;;;;;;;;;14.60;65.20;;;;;;5133830;27;19910;-72
2022/09/21 08:16:51;;;;;;;;;;;14.70;65.10;;;;;;5133969;27;19908;-72
2022/09/21 08:19:17;;;;;;;;;;;14.80;65.10;;;;;;5134068;28;19943;-72
2022/09/21 08:21:42;;;;;;;;;;;14.80;65.00;;;;;;5134029;28;19903;-72
2022/09/21 08:24:08;;;;;;;;;;;15.00;65.20;;;;;;5134016;28;19909;-72
2022/09/21 08:26:34;;;;;;;;;;;15.00;65.00;;;;;;5133945;28;19904;-72
2022/09/21 08:29:00;;;;;;;;;;;15.10;64.90;;;;;;5115869;28;19903;-72
2022/09/21 08:31:26;;;;;;;;;;;15.20;64.60;;;;;;5133618;28;19938;-72
2022/09/21 08:33:53;;;;;;;;;;;15.30;64.60;;;;;;5115401;27;20318;-72
2022/09/21 08:36:19;;;;;;;;;;;15.40;64.80;;;;;;5133852;28;19914;-72
2022/09/21 08:38:45;;;;;;;;;;;15.50;64.70;;;;;;5133822;28;20357;-72
2022/09/21 08:41:34;;;;;;;;;;;15.50;64.30;;;;;;5133813;28;19904;-72
2022/09/21 08:44:03;;;;;;;;;;;15.60;64.70;;;;;;5132367;28;19904;-72
2022/09/21 08:46:29;;;;;;;;;;;15.70;64.00;;;;;;5115212;28;19908;-72
2022/09/21 08:49:13;;;;;;;;;;;15.70;63.90;;;;;;5133824;28;19903;-72
2022/09/21 08:51:44;;;;;;;;;;;15.70;63.80;;;;;;5133668;28;20328;-72
2022/09/21 08:54:14;;;;;;;;;;;15.90;64.10;;;;;;5133743;28;19903;-72
2022/09/21 08:56:39;;;;;;;;;;;15.90;64.00;;;;;;5133995;27;20323;-72
2022/09/21 08:59:10;;;;;;;;;;;16.00;63.50;;;;;;5115214;28;19914;-72
2022/09/21 09:01:49;;;;;;;;;;;16.10;63.30;;;;;;5115272;28;19946;-72
2022/09/21 09:04:18;;;;;;;;;;;16.20;63.30;;;;;;5133636;28;19904;-72
2022/09/21 09:06:50;;;;;;;;;;;16.20;62.90;;;;;;5133536;28;19925;-73
2022/09/21 09:09:22;;;;;;;;;;;16.30;63.00;;;;;;5133552;28;19903;-72
2022/09/21 09:11:55;;;;;;;;;;;16.40;62.60;;;;;;5133586;28;19904;-73
2022/09/21 09:14:38;;;;;;;;;;;16.50;62.60;;;;;;5133585;28;19910;-73
2022/09/21 09:17:13;;;;;;;;;;;16.50;61.70;;;;;;5133458;28;19907;-72
2022/09/21 09:19:41;;;;;;;;;;;16.60;61.40;;;;;;5133399;28;19903;-73
2022/09/21 09:22:10;;;;;;;;;;;16.60;61.10;;;;;;5133525;28;19899;-73
2022/09/21 09:24:47;;;;;;;;;;;16.50;60.90;;;;;;5133389;28;19921;-73
2022/09/21 09:27:18;;;;;;;;;;;16.60;60.90;;;;;;5116506;27;19957;-73
2022/09/21 09:29:54;;;;;;;;;;;16.60;61.10;;;;;;5137066;27;20358;-73
2022/09/21 09:32:22;;;;;;;;;;;16.60;61.70;;;;;;5136640;27;20337;-73
2022/09/21 09:34:52;;;;;;;;;;;16.70;61.80;;;;;;5136830;27;19914;-73
2022/09/21 09:37:19;;;;;;;;;;;16.70;62.10;;;;;;5136671;27;19907;-73
2022/09/21 09:39:50;;;;;;;;;;;16.80;62.40;;;;;;5136829;27;19953;-74
2022/09/21 09:42:30;;;;;;;;;;;16.90;62.70;;;;;;5136877;27;19904;-73
2022/09/21 09:45:01;;;;;;;;;;;16.90;62.10;;;;;;5139481;27;19949;-73
2022/09/21 09:47:40;;;;;;;;;;;17.00;61.60;;;;;;5157471;27;19913;-73
2022/09/21 09:50:12;;;;;;;;;;;17.10;61.70;;;;;;5144650;27;19905;-73
2022/09/21 09:52:38;;;;;;;;;;;17.10;61.30;;;;;;5136635;27;19904;-73
2022/09/21 09:55:30;;;;;;;;;;;17.20;60.80;;;;;;5136507;27;19904;-74
2022/09/21 09:57:57;;;;;;;;;;;17.20;60.70;;;;;;5131268;27;19912;-74
2022/09/21 10:00:23;;;;;;;;;;;17.40;61.30;;;;;;5136526;27;19952;-74
2022/09/21 10:02:50;;;;;;;;;;;17.50;61.20;;;;;;5136436;27;19907;-74
2022/09/21 10:05:19;;;;;;;;;;;17.60;60.90;;;;;;5136354;27;19947;-74
2022/09/21 10:07:45;;;;;;;;;;;17.70;60.80;;;;;;5117982;27;19903;-74
2022/09/21 10:10:30;;;;;;;;;;;17.90;60.60;;;;;;5136227;27;20285;-71
2022/09/21 10:13:04;;;;;;;;;;;17.90;59.80;;;;;;5117769;27;19903;-73
2022/09/21 10:15:30;;;;;;;;;;;18.10;59.80;;;;;;5136107;27;19903;-73
2022/09/21 10:18:10;;;;;;;;;;;18.20;59.50;;;;;;5117564;27;19972;-73
2022/09/21 10:20:36;;;;;;;;;;;18.20;59.40;;;;;;5117760;27;19910;-73
2022/09/21 10:23:04;;;;;;;;;;;18.40;59.80;;;;;;5136019;27;19903;-74
2022/09/21 10:25:30;;;;;;;;;;;18.50;59.20;;;;;;5135930;27;19903;-74
2022/09/21 10:27:55;;;;;;;;;;;18.50;58.50;;;;;;5117327;27;20024;-74
2022/09/21 10:30:35;;;;;;;;;;;18.60;58.00;;;;;;5117718;27;20001;-74
2022/09/21 10:33:01;;;;;;;;;;;18.60;57.70;;;;;;5113676;28;19915;-73
2022/09/21 10:35:26;;;;;;;;;;;18.60;57.60;;;;;;5115158;28;19914;-73
2022/09/21 10:38:31;;;;;;;;;;;18.70;57.60;;;;;;5114093;28;19915;-73
2022/09/21 10:40:56;;;;;;;;;;;18.70;57.70;;;;;;5031921;28;19905;-73
2022/09/21 10:43:33;;;;;;;;;;;18.80;57.40;;;;;;5015406;28;19939;-73
2022/09/21 10:45:59;;;;;;;;;;;18.90;57.10;;;;;;5015511;28;19991;-73
2022/09/21 10:48:26;;;;;;;;;;;18.90;56.90;;;;;;5041898;28;19983;-73
2022/09/21 10:50:53;;;;;;;;;;;18.90;56.90;;;;;;5052061;28;19926;-74
2022/09/21 10:53:19;;;;;;;;;;;19.00;57.50;;;;;;5052047;28;19904;-74
2022/09/21 10:55:56;;;;;;;;;;;19.00;57.40;;;;;;5052018;28;20382;-73
2022/09/21 10:58:22;;;;;;;;;;;19.10;57.20;;;;;;5039059;28;19961;-73
2022/09/21 11:00:50;;;;;;;;;;;19.10;56.90;;;;;;5031945;28;19932;-74
2022/09/21 11:03:31;;;;;;;;;;;19.10;56.70;;;;;;5031904;28;19909;-73
2022/09/21 11:06:01;;;;;;;;;;;19.20;57.20;;;;;;5031907;28;19912;-73
2022/09/21 11:08:33;;;;;;;;;;;19.30;57.10;;;;;;5031790;28;19925;-73
2022/09/21 11:11:06;;;;;;;;;;;19.40;57.20;;;;;;5049247;28;19925;-73
2022/09/21 11:13:55;;;;;;;;;;;19.50;57.20;;;;;;5114463;28;19907;-73
2022/09/21 11:16:25;;;;;;;;;;;19.60;57.00;;;;;;5114346;28;19952;-74
2022/09/21 11:18:54;;;;;;;;;;;19.80;56.70;;;;;;5114353;28;20419;-73
2022/09/21 11:21:40;;;;;;;;;;;20.00;57.00;;;;;;5114255;28;20366;-73
2022/09/21 11:24:18;;;;;;;;;;;20.10;57.00;;;;;;5114236;28;19904;-73
2022/09/21 11:26:47;;;;;;;;;;;20.20;56.20;;;;;;5114305;28;19911;-72
2022/09/21 11:29:36;;;;;;;;;;;20.40;55.90;;;;;;5114326;27;19908;-73
2022/09/21 11:32:02;;;;;;;;;;;20.50;55.70;;;;;;5091113;27;19911;-72
2022/09/21 11:34:30;;;;;;;;;;;20.70;55.80;;;;;;5134576;27;20372;-73
2022/09/21 11:37:19;;;;;;;;;;;20.80;55.20;;;;;;5134587;27;19964;-73
2022/09/21 11:39:45;;;;;;;;;;;20.90;55.40;;;;;;5123282;27;19998;-73
2022/09/21 11:42:11;;;;;;;;;;;21.00;55.20;;;;;;5134466;27;19904;-72
2022/09/21 11:44:44;;;;;;;;;;;21.10;55.20;;;;;;5115923;27;20372;-73
2022/09/21 11:47:21;;;;;;;;;;;21.20;55.20;;;;;;5134222;27;19900;-73
2022/09/21 11:50:05;;;;;;;;;;;21.30;55.00;;;;;;5133997;27;19903;-73
2022/09/21 11:52:48;;;;;;;;;;;21.30;54.40;;;;;;5134285;27;19903;-73
2022/09/21 11:55:13;;;;;;;;;;;21.30;54.20;;;;;;5134328;27;19910;-73
2022/09/21 11:57:53;;;;;;;;;;;21.30;53.70;;;;;;5115543;27;19911;-73
2022/09/21 12:00:20;;;;;;;;;;;21.20;53.50;;;;;;5134157;27;19910;-73
2022/09/21 12:03:05;;;;;;;;;;;21.20;53.20;;;;;;5115551;27;20362;-73
2022/09/21 12:05:36;;;;;;;;;;;21.10;53.00;;;;;;5133874;27;19910;-73
2022/09/21 12:08:02;;;;;;;;;;;21.10;53.10;;;;;;5115529;27;19911;-73
2022/09/21 12:10:46;;;;;;;;;;;21.00;53.20;;;;;;5134050;27;20277;-73
2022/09/21 12:13:25;;;;;;;;;;;21.00;53.00;;;;;;5134184;27;19903;-73
2022/09/21 12:16:04;;;;;;;;;;;20.90;53.30;;;;;;5133817;27;19990;-73
2022/09/21 12:18:47;;;;;;;;;;;20.90;53.50;;;;;;5133867;28;20376;-73
2022/09/21 12:21:16;;;;;;;;;;;21.00;53.60;;;;;;5115347;28;20388;-73
2022/09/21 12:23:48;;;;;;;;;;;21.00;53.70;;;;;;5133782;28;20031;-73
2022/09/21 12:26:17;;;;;;;;;;;21.10;53.70;;;;;;5115496;28;19951;-73
2022/09/21 12:28:49;;;;;;;;;;;21.20;53.60;;;;;;5147501;27;19986;-73
2022/09/21 12:31:20;;;;;;;;;;;21.30;53.70;;;;;;5135916;27;20254;-73
2022/09/21 12:33:51;;;;;;;;;;;21.40;53.50;;;;;;5135871;27;19922;-73
2022/09/21 12:36:33;;;;;;;;;;;21.50;53.70;;;;;;5154492;27;19918;-73
2022/09/21 12:39:06;;;;;;;;;;;21.60;53.10;;;;;;5154461;27;19902;-73
2022/09/21 12:41:38;;;;;;;;;;;21.70;52.40;;;;;;5154506;27;19959;-73
2022/09/21 12:44:19;;;;;;;;;;;21.70;52.00;;;;;;5135995;27;19910;-73
2022/09/21 12:47:08;;;;;;;;;;;21.70;51.50;;;;;;5134204;27;20366;-73
2022/09/21 12:49:37;;;;;;;;;;;21.70;51.20;;;;;;5133947;28;20269;-73
2022/09/21 12:52:05;;;;;;;;;;;21.70;51.40;;;;;;5133658;28;19903;-72
2022/09/21 12:54:36;;;;;;;;;;;21.60;51.50;;;;;;5133628;28;19907;-73
2022/09/21 12:57:02;;;;;;;;;;;21.50;51.40;;;;;;5133366;27;19909;-73
2022/09/21 12:59:53;;;;;;;;;;;21.50;50.70;;;;;;5133481;27;19998;-73
2022/09/21 13:02:32;;;;;;;;;;;21.50;50.90;;;;;;5131357;27;20386;-73
2022/09/21 13:04:57;;;;;;;;;;;21.40;51.20;;;;;;5118966;27;19903;-73
2022/09/21 13:07:48;;;;;;;;;;;21.30;51.20;;;;;;5137353;27;19903;-73
2022/09/21 13:10:21;;;;;;;;;;;21.30;51.00;;;;;;5137522;27;19899;-73
2022/09/21 13:12:47;;;;;;;;;;;21.20;51.00;;;;;;5118848;27;20350;-73
2022/09/21 13:15:24;;;;;;;;;;;21.20;51.10;;;;;;5137382;27;20008;-73
2022/09/21 13:18:17;;;;;;;;;;;21.20;51.40;;;;;;5137270;27;19990;-74
2022/09/21 13:20:43;;;;;;;;;;;21.20;51.20;;;;;;5133535;27;19903;-74
2022/09/21 13:23:15;;;;;;;;;;;21.30;51.20;;;;;;5137166;27;19903;-74
2022/09/21 13:25:45;;;;;;;;;;;21.30;51.10;;;;;;5137116;27;19911;-74
2022/09/21 13:28:15;;;;;;;;;;;21.40;50.80;;;;;;5136918;27;20293;-74
2022/09/21 13:30:43;;;;;;;;;;;21.40;50.80;;;;;;5137028;27;20358;-74
2022/09/21 13:33:15;;;;;;;;;;;21.50;50.90;;;;;;5136775;27;19915;-74
2022/09/21 13:35:47;;;;;;;;;;;21.50;50.50;;;;;;5136980;27;19904;-74
2022/09/21 13:38:31;;;;;;;;;;;21.70;50.50;;;;;;5136822;27;19930;-72
2022/09/21 13:41:00;;;;;;;;;;;21.80;50.50;;;;;;5136710;27;19919;-73
2022/09/21 13:43:45;;;;;;;;;;;21.90;50.10;;;;;;5118236;27;20389;-73
2022/09/21 13:46:37;;;;;;;;;;;22.00;49.30;;;;;;5136490;27;19991;-73
2022/09/21 13:49:09;;;;;;;;;;;22.10;48.20;;;;;;5132440;27;19904;-74
2022/09/21 13:51:53;;;;;;;;;;;22.00;47.70;;;;;;5118191;27;19910;-74
2022/09/21 13:54:20;;;;;;;;;;;22.00;47.60;;;;;;5136518;27;19903;-73
2022/09/21 13:56:46;;;;;;;;;;;21.90;47.40;;;;;;5118287;27;20285;-73
2022/09/21 13:59:20;;;;;;;;;;;21.80;47.10;;;;;;5118041;27;19907;-73
2022/09/21 14:01:45;;;;;;;;;;;21.80;47.50;;;;;;5136487;27;19910;-75
2022/09/21 14:04:17;;;;;;;;;;;21.70;47.50;;;;;;5136331;27;19907;-74
2022/09/21 14:06:45;;;;;;;;;;;21.70;47.40;;;;;;5136329;27;19926;-73
2022/09/21 14:09:21;;;;;;;;;;;21.70;47.40;;;;;;5136566;27;19903;-74
2022/09/21 14:11:53;;;;;;;;;;;21.60;47.20;;;;;;5136192;27;19911;-74
2022/09/21 14:14:27;;;;;;;;;;;21.60;47.10;;;;;;5117673;27;19914;-73
2022/09/21 14:16:54;;;;;;;;;;;21.60;47.20;;;;;;5135991;27;19908;-74
2022/09/21 14:19:20;;;;;;;;;;;21.60;47.30;;;;;;5136052;27;19908;-74
2022/09/21 14:22:04;;;;;;;;;;;21.60;47.40;;;;;;5136059;27;19999;-73
2022/09/21 14:24:43;;;;;;;;;;;21.60;47.20;;;;;;5117482;27;19904;-73
2022/09/21 14:27:28;;;;;;;;;;;21.60;47.20;;;;;;5135836;27;19995;-74
2022/09/21 14:29:59;;;;;;;;;;;21.50;46.80;;;;;;5135747;27;19910;-74
2022/09/21 14:32:27;;;;;;;;;;;21.50;46.60;;;;;;5117221;27;20327;-74
2022/09/21 14:34:55;;;;;;;;;;;21.50;46.70;;;;;;5117272;27;19908;-74
2022/09/21 14:37:27;;;;;;;;;;;21.40;46.60;;;;;;5117169;27;19911;-74
2022/09/21 14:39:54;;;;;;;;;;;21.40;46.90;;;;;;5135500;27;20298;-74